createdAt,value
2019-04-14T00:01:12.987Z,8.93
2019-04-14T00:03:45.341Z,9.67
2019-04-14T00:06:15.794Z,9.00
2019-04-14T00:08:45.875Z,9.37
2019-04-14T00:11:15.257Z,9.57
2019-04-14T00:13:45.608Z,8.80
2019-04-14T00:16:16.277Z,9.03
2019-04-14T00:18:46.877Z,9.03
2019-04-14T00:21:17.272Z,9.37
2019-04-14T00:23:47.714Z,9.57
2019-04-14T00:26:29.328Z,9.03
2019-04-14T00:29:00.050Z,9.50
2019-04-14T00:31:30.735Z,9.87
2019-04-14T00:34:02.869Z,9.17
2019-04-14T00:36:43.799Z,8.90
2019-04-14T00:39:24.948Z,8.73
2019-04-14T00:41:59.029Z,8.90
2019-04-14T00:44:41.142Z,9.07
2019-04-14T00:47:11.988Z,9.07
2019-04-14T00:49:42.131Z,9.30
2019-04-14T00:52:12.495Z,9.00
2019-04-14T00:54:43.496Z,9.33
2019-04-14T00:57:13.675Z,8.73
2019-04-14T00:59:44.060Z,9.23
2019-04-14T01:02:14.502Z,8.57
2019-04-14T01:04:45.012Z,9.07
2019-04-14T01:07:15.160Z,9.53
2019-04-14T01:09:44.732Z,9.07
2019-04-14T01:12:14.892Z,9.37
2019-04-14T01:14:45.197Z,9.77
2019-04-14T01:17:15.526Z,9.13
2019-04-14T01:19:46.008Z,9.00
2019-04-14T01:22:16.275Z,9.37
2019-04-14T01:24:46.764Z,8.90
2019-04-14T01:27:16.777Z,9.13
2019-04-14T01:29:47.271Z,8.57
2019-04-14T01:32:17.608Z,8.93
2019-04-14T01:34:47.663Z,9.07
2019-04-14T01:37:17.981Z,9.87
2019-04-14T01:39:48.185Z,9.30
2019-04-14T01:42:18.072Z,8.63
2019-04-14T01:44:48.126Z,8.50
2019-04-14T01:47:18.199Z,9.93
2019-04-14T01:49:48.668Z,9.33
2019-04-14T01:52:32.031Z,9.13
2019-04-14T01:55:02.976Z,9.07
2019-04-14T01:57:34.927Z,9.63
2019-04-14T02:00:25.002Z,9.47
2019-04-14T02:02:55.369Z,8.60
2019-04-14T02:05:25.696Z,9.83
2019-04-14T02:07:55.877Z,9.27
2019-04-14T02:10:25.927Z,9.20
2019-04-14T02:12:56.370Z,9.47
2019-04-14T02:15:26.579Z,8.93
2019-04-14T02:17:56.686Z,8.63
2019-04-14T02:20:27.226Z,9.13
2019-04-14T02:22:57.354Z,9.70
2019-04-14T02:25:27.494Z,8.67
2019-04-14T02:27:58.009Z,9.50
2019-04-14T02:30:33.895Z,9.40
2019-04-14T02:33:31.897Z,9.23
2019-04-14T02:41:09.307Z,9.43
2019-04-14T02:43:39.635Z,8.77
2019-04-14T02:45:59.330Z,9.27
2019-04-14T02:51:04.254Z,9.13
2019-04-14T02:53:44.314Z,8.87
2019-04-14T02:56:08.260Z,8.80
2019-04-14T03:01:07.584Z,8.90
2019-04-14T03:06:20.285Z,9.30
2019-04-14T03:08:45.741Z,9.40
2019-04-14T03:11:24.717Z,9.07
2019-04-14T03:16:15.571Z,9.30
2019-04-14T03:18:52.488Z,8.73
2019-04-14T03:21:30.725Z,9.47
2019-04-14T03:23:56.349Z,8.67
2019-04-14T03:26:36.536Z,9.27
2019-04-14T03:29:08.152Z,9.63
2019-04-14T03:39:17.823Z,8.03
2019-04-14T03:41:50.968Z,8.93
2019-04-14T03:44:22.694Z,8.63
2019-04-14T03:46:53.127Z,8.63
2019-04-14T03:54:15.967Z,9.40
2019-04-14T03:56:48.994Z,8.80
2019-04-14T03:59:19.609Z,8.53
2019-04-14T04:01:50.045Z,8.00
2019-04-14T04:04:20.458Z,9.17
2019-04-14T04:06:50.883Z,8.90
2019-04-14T04:09:21.903Z,8.27
2019-04-14T04:11:51.987Z,8.60
2019-04-14T04:14:22.369Z,8.73
2019-04-14T04:16:57.314Z,7.97
2019-04-14T04:19:31.598Z,8.47
2019-04-14T04:22:06.331Z,8.13
2019-04-14T04:24:43.376Z,8.67
2019-04-14T04:27:31.023Z,8.67
2019-04-14T04:30:01.917Z,8.30
2019-04-14T04:32:33.862Z,9.03
2019-04-14T04:35:11.399Z,8.73
2019-04-14T04:37:52.051Z,8.60
2019-04-14T04:40:23.063Z,8.80
2019-04-14T04:42:52.672Z,8.60
2019-04-14T04:45:23.413Z,8.50
2019-04-14T04:47:53.491Z,8.23
2019-04-14T04:50:23.810Z,8.77
2019-04-14T04:52:54.017Z,7.70
2019-04-14T04:55:24.192Z,8.93
2019-04-14T04:57:54.535Z,8.73
2019-04-14T05:00:24.447Z,8.30
2019-04-14T05:02:54.727Z,8.53
2019-04-14T05:05:53.585Z,8.33
2019-04-14T05:08:24.055Z,8.80
2019-04-14T05:11:04.012Z,8.13
2019-04-14T05:13:35.937Z,8.13
2019-04-14T05:16:06.331Z,8.23
2019-04-14T05:18:35.680Z,8.80
2019-04-14T05:21:05.957Z,8.60
2019-04-14T05:23:36.623Z,8.70
2019-04-14T05:26:06.968Z,8.63
2019-04-14T05:28:37.408Z,8.57
2019-04-14T05:31:07.625Z,8.70
2019-04-14T05:33:38.358Z,8.67
2019-04-14T05:36:08.533Z,8.17
2019-04-14T05:38:38.616Z,8.60
2019-04-14T05:41:08.999Z,8.13
2019-04-14T05:43:48.206Z,8.37
2019-04-14T05:46:09.894Z,8.23
2019-04-14T05:48:40.309Z,8.37
2019-04-14T05:51:10.900Z,8.20
2019-04-14T05:53:41.491Z,8.23
2019-04-14T05:56:12.117Z,8.33
2019-04-14T05:58:42.539Z,8.23
2019-04-14T06:01:12.416Z,8.47
2019-04-14T06:03:41.739Z,8.47
2019-04-14T06:06:10.976Z,7.77
2019-04-14T06:08:40.159Z,8.40
2019-04-14T06:11:09.403Z,8.00
2019-04-14T06:13:38.676Z,7.87
2019-04-14T06:16:07.931Z,7.83
2019-04-14T06:18:37.186Z,8.13
2019-04-14T06:21:06.444Z,8.40
2019-04-14T06:23:36.008Z,8.13
2019-04-14T06:26:05.171Z,8.10
2019-04-14T06:28:34.425Z,7.90
2019-04-14T06:31:08.999Z,8.33
2019-04-14T06:33:41.055Z,8.17
2019-04-14T06:36:14.676Z,7.97
2019-04-14T06:38:48.247Z,8.80
2019-04-14T06:41:18.972Z,7.70
2019-04-14T06:43:49.295Z,8.03
2019-04-14T06:46:19.950Z,8.60
2019-04-14T06:48:49.116Z,8.60
2019-04-14T06:51:18.368Z,8.00
2019-04-14T06:53:47.619Z,8.57
2019-04-14T06:56:16.863Z,8.57
2019-04-14T06:58:47.395Z,8.43
2019-04-14T07:01:16.847Z,8.30
2019-04-14T07:03:46.172Z,8.27
2019-04-14T07:06:15.423Z,8.17
2019-04-14T07:08:44.604Z,8.27
2019-04-14T07:11:13.852Z,7.93
2019-04-14T07:13:47.902Z,8.63
2019-04-14T07:16:13.962Z,8.57
2019-04-14T07:18:43.222Z,8.57
2019-04-14T07:21:12.460Z,8.20
2019-04-14T07:23:41.712Z,8.50
2019-04-14T07:26:10.956Z,7.80
2019-04-14T07:28:40.212Z,8.80
2019-04-14T07:31:27.767Z,8.33
2019-04-14T07:34:07.427Z,8.83
2019-04-14T07:36:47.222Z,7.93
2019-04-14T07:39:36.433Z,9.03
2019-04-14T07:42:07.328Z,9.13
2019-04-14T07:44:50.409Z,8.90
2019-04-14T07:47:27.177Z,8.90
2019-04-14T07:50:14.966Z,9.07
2019-04-14T07:52:51.575Z,8.17
2019-04-14T07:55:22.470Z,7.97
2019-04-14T07:57:59.037Z,8.77
2019-04-14T08:00:32.612Z,8.53
2019-04-14T08:03:03.497Z,8.80
2019-04-14T08:05:37.641Z,9.13
2019-04-14T08:08:06.896Z,8.57
2019-04-14T08:10:36.443Z,8.67
2019-04-14T08:13:05.700Z,8.23
2019-04-14T08:15:35.013Z,8.97
2019-04-14T08:18:04.341Z,8.40
2019-04-14T08:20:34.915Z,9.13
2019-04-14T08:23:04.171Z,8.50
2019-04-14T08:25:33.412Z,8.47
2019-04-14T08:28:02.667Z,8.03
2019-04-14T08:30:31.908Z,8.17
2019-04-14T08:33:01.232Z,8.03
2019-04-14T08:35:30.499Z,8.83
2019-04-14T08:37:59.733Z,8.10
2019-04-14T08:40:28.995Z,8.43
2019-04-14T08:43:16.268Z,8.03
2019-04-14T08:45:47.156Z,8.37
2019-04-14T08:48:36.168Z,7.33
2019-04-14T08:51:22.257Z,8.10
2019-04-14T08:54:11.315Z,7.97
2019-04-14T08:56:48.171Z,8.40
2019-04-14T08:59:21.691Z,7.80
2019-04-14T09:02:04.234Z,8.67
2019-04-14T09:04:37.652Z,7.80
2019-04-14T09:07:24.872Z,7.50
2019-04-14T09:09:58.637Z,7.77
2019-04-14T09:12:29.530Z,8.13
2019-04-14T09:14:58.783Z,8.03
2019-04-14T09:17:29.896Z,7.63
2019-04-14T09:19:59.152Z,7.27
2019-04-14T09:22:28.388Z,7.50
2019-04-14T09:24:57.645Z,7.67
2019-04-14T09:27:26.883Z,7.60
2019-04-14T09:29:56.131Z,7.37
2019-04-14T09:32:26.555Z,7.50
2019-04-14T09:34:55.813Z,7.30
2019-04-14T09:37:25.064Z,7.67
2019-04-14T09:39:54.301Z,7.90
2019-04-14T09:42:23.555Z,7.60
2019-04-14T09:44:52.792Z,6.90
2019-04-14T09:47:22.043Z,7.47
2019-04-14T09:49:51.299Z,7.73
2019-04-14T09:52:20.560Z,7.63
2019-04-14T09:54:49.823Z,7.47
2019-04-14T09:57:19.068Z,7.20
2019-04-14T09:59:48.320Z,6.90
2019-04-14T10:02:17.611Z,7.37
2019-04-14T10:04:46.811Z,6.70
2019-04-14T10:07:16.048Z,6.97
2019-04-14T10:09:45.306Z,7.10
2019-04-14T10:12:14.568Z,6.97
2019-04-14T10:14:43.823Z,6.73
2019-04-14T10:17:13.073Z,6.43
2019-04-14T10:19:42.331Z,6.77
2019-04-14T10:22:11.568Z,7.33
2019-04-14T10:24:42.088Z,6.90
2019-04-14T10:27:11.338Z,7.17
2019-04-14T10:29:40.519Z,7.00
2019-04-14T10:32:10.944Z,7.17
2019-04-14T10:34:40.180Z,7.07
2019-04-14T10:37:09.448Z,7.10
2019-04-14T10:39:38.689Z,7.30
2019-04-14T10:42:07.948Z,7.70
2019-04-14T10:44:37.201Z,7.63
2019-04-14T10:47:06.460Z,8.10
2019-04-14T10:49:35.698Z,7.33
2019-04-14T10:52:05.009Z,8.17
2019-04-14T10:54:34.264Z,7.73
2019-04-14T10:57:03.504Z,7.90
2019-04-14T10:59:32.785Z,7.90
2019-04-14T11:02:02.259Z,8.20
2019-04-14T11:04:31.487Z,8.40
2019-04-14T11:07:02.389Z,8.57
2019-04-14T11:09:31.644Z,8.30
2019-04-14T11:12:00.883Z,8.13
2019-04-14T11:14:31.203Z,8.40
2019-04-14T11:17:00.616Z,8.47
2019-04-14T11:19:29.871Z,8.10
2019-04-14T11:21:59.041Z,8.43
2019-04-14T11:24:28.292Z,8.73
2019-04-14T11:26:58.651Z,9.10
2019-04-14T11:29:27.904Z,8.40
2019-04-14T11:32:04.488Z,8.70
2019-04-14T11:34:35.384Z,8.47
2019-04-14T11:37:09.464Z,8.70
2019-04-14T11:39:38.951Z,9.13
2019-04-14T11:42:08.123Z,9.80
2019-04-14T11:44:37.375Z,8.83
2019-04-14T11:47:06.887Z,8.73
2019-04-14T11:49:36.146Z,8.53
2019-04-14T11:52:05.379Z,9.23
2019-04-14T11:54:34.635Z,8.60
2019-04-14T11:57:03.901Z,8.77
2019-04-14T11:59:37.423Z,8.10
2019-04-14T12:02:08.399Z,8.63
2019-04-14T12:04:39.290Z,9.07
2019-04-14T12:07:22.212Z,8.77
2019-04-14T12:09:53.043Z,8.43
2019-04-14T12:12:23.471Z,8.80
2019-04-14T12:14:52.728Z,8.53
2019-04-14T12:17:21.979Z,9.27
2019-04-14T12:19:51.304Z,8.50
2019-04-14T12:22:20.545Z,8.17
2019-04-14T12:24:49.791Z,8.33
2019-04-14T12:27:18.972Z,8.27
2019-04-14T12:29:48.256Z,8.73
2019-04-14T12:32:17.918Z,8.33
2019-04-14T12:34:48.610Z,8.70
2019-04-14T12:37:18.937Z,8.90
2019-04-14T12:39:48.191Z,8.07
2019-04-14T12:42:25.202Z,8.83
2019-04-14T12:45:01.956Z,8.20
2019-04-14T12:47:49.664Z,8.33
2019-04-14T12:50:29.455Z,9.10
2019-04-14T12:52:59.033Z,8.30
2019-04-14T12:55:28.282Z,9.03
2019-04-14T12:57:59.176Z,9.20
2019-04-14T13:00:39.260Z,8.93
2019-04-14T13:03:08.519Z,8.70
2019-04-14T13:05:37.780Z,8.80
2019-04-14T13:08:07.031Z,8.97
2019-04-14T13:10:36.211Z,9.47
2019-04-14T13:13:05.387Z,9.77
2019-04-14T13:15:34.644Z,9.13
2019-04-14T13:18:03.811Z,9.67
2019-04-14T13:20:33.072Z,10.10
2019-04-14T13:23:02.318Z,10.20
2019-04-14T13:25:31.844Z,9.93
2019-04-14T13:28:01.092Z,10.17
2019-04-14T13:30:32.064Z,9.57
2019-04-14T13:33:01.416Z,9.80
2019-04-14T13:35:30.712Z,10.40
2019-04-14T13:37:59.931Z,10.07
2019-04-14T13:40:29.119Z,10.07
2019-04-14T13:42:58.385Z,11.30
2019-04-14T13:45:27.631Z,10.40
2019-04-14T13:47:56.968Z,10.23
2019-04-14T13:50:26.227Z,9.97
2019-04-14T13:52:55.467Z,9.70
2019-04-14T13:55:24.730Z,10.23
2019-04-14T13:57:53.986Z,10.30
2019-04-14T14:00:23.316Z,10.87
2019-04-14T14:02:52.576Z,10.33
2019-04-14T14:05:21.840Z,10.37
2019-04-14T14:07:51.112Z,10.67
2019-04-14T14:10:20.356Z,9.73
2019-04-14T14:12:57.207Z,9.97
2019-04-14T14:15:33.823Z,9.60
2019-04-14T14:18:20.892Z,9.77
2019-04-14T14:21:09.800Z,9.87
2019-04-14T14:23:49.504Z,9.50
2019-04-14T14:26:26.315Z,10.00
2019-04-14T14:28:55.579Z,9.53
2019-04-14T14:31:25.290Z,9.30
2019-04-14T14:33:54.543Z,9.50
2019-04-14T14:36:23.725Z,9.47
2019-04-14T14:38:54.053Z,9.33
2019-04-14T14:41:23.406Z,9.57
2019-04-14T14:43:52.660Z,9.60
2019-04-14T14:46:23.574Z,8.97
2019-04-14T14:49:06.451Z,9.37
2019-04-14T14:51:46.103Z,8.97
2019-04-14T14:54:15.343Z,10.30
2019-04-14T14:56:44.600Z,8.63
2019-04-14T14:59:13.855Z,8.97
2019-04-14T15:01:43.119Z,9.67
2019-04-14T15:04:12.371Z,9.37
2019-04-14T15:06:41.639Z,8.87
2019-04-14T15:09:10.894Z,9.13
2019-04-14T15:11:40.130Z,8.23
2019-04-14T15:14:09.319Z,9.37
2019-04-14T15:16:38.571Z,8.20
2019-04-14T15:19:07.848Z,8.33
2019-04-14T15:21:37.099Z,8.47
2019-04-14T15:24:06.475Z,8.70
2019-04-14T15:26:35.737Z,9.07
2019-04-14T15:29:05.088Z,8.47
2019-04-14T15:31:34.331Z,8.37
2019-04-14T15:34:03.523Z,8.37
2019-04-14T15:36:32.756Z,8.37
2019-04-14T15:39:02.016Z,8.63
2019-04-14T15:41:32.872Z,7.70
2019-04-14T15:44:02.125Z,8.43
2019-04-14T15:46:31.380Z,8.20
2019-04-14T15:49:00.632Z,8.13
2019-04-14T15:51:29.882Z,8.10
2019-04-14T15:53:59.127Z,8.27
2019-04-14T15:56:30.023Z,8.13
2019-04-14T15:59:03.507Z,7.60
2019-04-14T16:01:37.560Z,7.83
2019-04-14T16:04:20.688Z,8.10
2019-04-14T16:07:07.704Z,7.03
2019-04-14T16:09:44.559Z,7.53
2019-04-14T16:12:16.524Z,7.77
2019-04-14T16:14:50.383Z,7.70
2019-04-14T16:17:30.316Z,7.30
2019-04-14T16:20:10.270Z,7.73
2019-04-14T16:22:39.836Z,7.63
2019-04-14T16:25:09.157Z,7.23
2019-04-14T16:27:56.381Z,7.33
2019-04-14T16:30:42.049Z,7.23
2019-04-14T16:33:12.931Z,7.17
2019-04-14T16:35:42.563Z,7.67
2019-04-14T16:38:11.820Z,8.10
2019-04-14T16:40:41.075Z,7.33
2019-04-14T16:43:10.395Z,7.63
2019-04-14T16:45:39.792Z,7.37
2019-04-14T16:48:09.113Z,7.30
2019-04-14T16:50:38.359Z,7.20
2019-04-14T16:53:21.155Z,7.87
2019-04-14T16:55:52.032Z,7.40
2019-04-14T16:58:23.328Z,6.80
2019-04-14T17:00:54.208Z,7.47
2019-04-14T17:03:23.897Z,6.90
2019-04-14T17:05:53.472Z,7.33
2019-04-14T17:08:23.684Z,6.97
2019-04-14T17:10:52.943Z,7.40
2019-04-14T17:13:23.831Z,6.50
2019-04-14T17:16:00.458Z,6.87
2019-04-14T17:18:31.427Z,6.73
2019-04-14T17:21:17.280Z,6.97
2019-04-14T17:23:50.904Z,6.97
2019-04-14T17:26:21.866Z,6.90
2019-04-14T17:29:01.655Z,6.93
2019-04-14T17:31:35.329Z,6.77
2019-04-14T17:34:09.021Z,6.30
2019-04-14T17:36:55.267Z,6.60
2019-04-14T17:39:38.147Z,6.53
2019-04-14T17:42:24.036Z,6.30
2019-04-14T17:44:54.944Z,6.70
2019-04-14T17:47:41.767Z,6.33
2019-04-14T17:50:15.452Z,6.37
2019-04-14T17:53:01.448Z,6.17
2019-04-14T17:55:35.087Z,6.60
2019-04-14T17:58:06.231Z,5.83
2019-04-14T18:00:39.891Z,6.50
2019-04-14T18:03:14.029Z,6.00
2019-04-14T18:05:59.912Z,6.03
2019-04-14T18:08:30.803Z,6.37
2019-04-14T18:11:04.494Z,5.77
2019-04-14T18:13:51.644Z,5.97
2019-04-14T18:16:25.821Z,5.40
2019-04-14T18:18:57.279Z,6.20
2019-04-14T18:21:26.611Z,5.70
2019-04-14T18:23:55.959Z,6.07
2019-04-14T18:26:25.203Z,6.37
2019-04-14T18:29:12.379Z,5.90
2019-04-14T18:31:49.223Z,5.73
2019-04-14T18:34:20.124Z,5.73
2019-04-14T18:36:53.943Z,5.90
2019-04-14T18:39:30.795Z,5.80
2019-04-14T18:42:04.440Z,5.90
2019-04-14T18:44:35.339Z,6.00
2019-04-14T18:47:15.327Z,6.20
2019-04-14T18:50:02.463Z,5.73
2019-04-14T18:52:45.408Z,5.63
2019-04-14T18:55:16.300Z,5.03
2019-04-14T18:58:03.332Z,5.90
2019-04-14T19:00:34.229Z,5.13
2019-04-14T19:03:03.471Z,5.53
2019-04-14T19:05:32.726Z,5.80
2019-04-14T19:08:02.105Z,5.23
2019-04-14T19:10:31.352Z,5.80
2019-04-14T19:13:05.213Z,5.43
2019-04-14T19:15:36.112Z,5.93
2019-04-14T19:18:09.484Z,5.33
2019-04-14T19:20:40.466Z,5.43
2019-04-14T19:23:09.717Z,5.10
2019-04-14T19:25:38.967Z,5.40
2019-04-14T19:28:08.226Z,5.80
2019-04-14T19:30:37.471Z,5.50
2019-04-14T19:33:06.727Z,5.27
2019-04-14T19:35:35.968Z,5.17
2019-04-14T19:38:05.216Z,5.67
2019-04-14T19:40:35.748Z,5.60
2019-04-14T19:43:06.608Z,5.23
2019-04-14T19:45:35.861Z,5.47
2019-04-14T19:48:05.103Z,4.60
2019-04-14T19:50:34.353Z,5.90
2019-04-14T19:53:03.596Z,5.47
2019-04-14T19:55:32.844Z,5.57
2019-04-14T19:58:02.083Z,5.20
2019-04-14T20:00:31.508Z,5.17
2019-04-14T20:03:00.794Z,5.10
2019-04-14T20:05:31.269Z,4.93
2019-04-14T20:08:00.526Z,5.27
2019-04-14T20:10:29.975Z,5.37
2019-04-14T20:12:59.224Z,5.50
2019-04-14T20:15:30.104Z,5.10
2019-04-14T20:18:09.982Z,5.00
2019-04-14T20:20:44.055Z,5.13
2019-04-14T20:23:21.919Z,5.07
2019-04-14T20:25:55.885Z,4.80
2019-04-14T20:28:32.704Z,5.37
2019-04-14T20:31:03.967Z,5.03
2019-04-14T20:33:33.308Z,5.07
2019-04-14T20:36:05.240Z,5.03
2019-04-14T20:38:33.531Z,5.33
2019-04-14T20:41:02.808Z,5.03
2019-04-14T20:43:32.044Z,4.80
2019-04-14T20:46:01.299Z,5.07
2019-04-14T20:48:30.530Z,4.70
2019-04-14T20:50:59.782Z,4.57
2019-04-14T20:53:28.954Z,4.73
2019-04-14T20:55:58.200Z,5.10
2019-04-14T20:58:27.452Z,5.03
2019-04-14T21:00:56.804Z,4.87
2019-04-14T21:03:39.752Z,4.83
2019-04-14T21:06:19.343Z,4.63
2019-04-14T21:08:56.156Z,4.83
2019-04-14T21:11:30.203Z,4.80
2019-04-14T21:14:04.059Z,4.80
2019-04-14T21:16:34.945Z,4.60
2019-04-14T21:19:11.565Z,4.93
2019-04-14T21:21:42.461Z,4.73
2019-04-14T21:24:13.336Z,4.67
2019-04-14T21:26:46.891Z,4.87
2019-04-14T21:29:33.979Z,4.57
2019-04-14T21:32:04.885Z,4.40
2019-04-14T21:34:47.711Z,4.80
2019-04-14T21:37:27.586Z,5.10
2019-04-14T21:40:10.204Z,4.63
2019-04-14T21:42:40.827Z,4.80
2019-04-14T21:45:10.063Z,5.07
2019-04-14T21:47:39.329Z,4.33
2019-04-14T21:50:08.644Z,4.17
2019-04-14T21:52:42.480Z,4.30
2019-04-14T21:55:12.803Z,4.37
2019-04-14T21:58:00.108Z,4.70
2019-04-14T22:01:11.592Z,4.53
2019-04-14T22:03:48.410Z,4.40
2019-04-14T22:06:19.299Z,4.27
2019-04-14T22:08:55.235Z,4.23
2019-04-14T22:11:26.057Z,4.20
2019-04-14T22:13:55.310Z,4.00
2019-04-14T22:16:24.565Z,4.40
2019-04-14T22:18:54.581Z,4.03
2019-04-14T22:21:23.902Z,4.67
2019-04-14T22:24:01.321Z,4.17
2019-04-14T22:26:26.417Z,4.37
2019-04-14T22:28:54.904Z,4.30
2019-04-14T22:31:24.169Z,4.53
2019-04-14T22:33:53.402Z,4.73
2019-04-14T22:36:22.657Z,4.13
2019-04-14T22:38:51.974Z,3.80
2019-04-14T22:41:21.219Z,3.87
2019-04-14T22:43:50.468Z,3.90
2019-04-14T22:46:19.720Z,4.13
2019-04-14T22:48:48.968Z,4.10
2019-04-14T22:51:18.216Z,4.00
2019-04-14T22:53:47.459Z,3.67
2019-04-14T22:56:16.697Z,3.97
2019-04-14T22:58:47.012Z,4.00
2019-04-14T23:01:23.885Z,3.93
2019-04-14T23:04:10.032Z,4.20
2019-04-14T23:06:57.045Z,3.77
2019-04-14T23:09:27.971Z,3.83
2019-04-14T23:11:58.819Z,3.87
2019-04-14T23:14:29.704Z,3.23
2019-04-14T23:17:18.887Z,3.83
2019-04-14T23:19:55.532Z,3.57
2019-04-14T23:22:42.732Z,3.47
2019-04-14T23:25:12.056Z,3.17
2019-04-14T23:27:41.299Z,3.17
2019-04-14T23:30:10.608Z,3.60
2019-04-14T23:32:39.858Z,3.27
2019-04-14T23:35:09.094Z,3.30
2019-04-14T23:37:38.408Z,3.40
2019-04-14T23:40:07.927Z,3.60
2019-04-14T23:42:37.364Z,3.50
2019-04-14T23:45:08.079Z,3.23
2019-04-14T23:47:37.504Z,2.83
2019-04-14T23:50:09.720Z,3.30
2019-04-14T23:52:38.954Z,3.20
2019-04-14T23:55:08.676Z,3.33
2019-04-14T23:57:37.908Z,3.17
